createdAt,value
2022-11-06T00:00:27.775Z,95955
2022-11-06T00:01:36.768Z,95955
2022-11-06T00:02:46.550Z,95951
2022-11-06T00:03:54.186Z,95957
2022-11-06T00:05:02.985Z,95957
2022-11-06T00:06:11.920Z,95955
2022-11-06T00:07:21.646Z,95959
2022-11-06T00:08:31.429Z,95956
2022-11-06T00:09:40.122Z,95957
2022-11-06T00:10:48.876Z,95956
2022-11-06T00:11:58.540Z,95956
2022-11-06T00:13:06.217Z,95960
2022-11-06T00:14:15.003Z,95957
2022-11-06T00:15:24.773Z,95959
2022-11-06T00:16:33.563Z,95958
2022-11-06T00:17:43.663Z,95959
2022-11-06T00:18:52.404Z,95962
2022-11-06T00:20:02.338Z,95958
2022-11-06T00:21:12.099Z,95961
2022-11-06T00:22:21.000Z,95958
2022-11-06T00:23:29.604Z,95956
2022-11-06T00:24:38.407Z,95955
2022-11-06T00:25:47.132Z,95956
2022-11-06T00:26:56.936Z,95953
2022-11-06T00:28:04.647Z,95960
2022-11-06T00:29:13.398Z,95956
2022-11-06T00:30:23.168Z,95953
2022-11-06T00:31:30.931Z,95955
2022-11-06T00:32:39.656Z,95954
2022-11-06T00:33:48.374Z,95955
2022-11-06T00:34:58.163Z,95948
2022-11-06T00:36:07.985Z,95947
2022-11-06T00:37:15.742Z,95942
2022-11-06T00:38:24.470Z,95944
2022-11-06T00:39:34.217Z,95946
2022-11-06T00:40:42.031Z,95947
2022-11-06T00:41:51.899Z,95948
2022-11-06T00:43:01.713Z,95950
2022-11-06T00:44:11.412Z,95945
2022-11-06T00:45:21.142Z,95946
2022-11-06T00:46:28.893Z,95946
2022-11-06T00:47:38.597Z,95945
2022-11-06T00:48:46.320Z,95946
2022-11-06T00:49:55.044Z,95941
2022-11-06T00:51:03.755Z,95945
2022-11-06T00:52:13.527Z,95946
2022-11-06T00:53:22.297Z,95945
2022-11-06T00:54:31.004Z,95942
2022-11-06T00:55:40.788Z,95941
2022-11-06T00:56:48.618Z,95941
2022-11-06T00:57:57.595Z,95942
2022-11-06T00:59:07.446Z,95944
2022-11-06T01:00:16.195Z,95943
2022-11-06T01:01:25.082Z,95950
2022-11-06T01:02:33.819Z,95953
2022-11-06T01:03:43.416Z,95953
2022-11-06T01:04:53.136Z,95945
2022-11-06T01:06:00.883Z,95948
2022-11-06T01:07:09.635Z,95945
2022-11-06T01:08:18.426Z,95947
2022-11-06T01:09:27.117Z,95951
2022-11-06T01:10:36.963Z,95953
2022-11-06T01:12:11.547Z,95949
2022-11-06T01:12:55.489Z,95948
2022-11-06T01:14:05.335Z,95952
2022-11-06T01:15:13.124Z,95949
2022-11-06T01:16:21.109Z,95948
2022-11-06T01:17:29.847Z,95946
2022-11-06T01:18:39.515Z,95947
2022-11-06T01:19:49.310Z,95946
2022-11-06T01:20:59.077Z,95948
2022-11-06T01:22:08.803Z,95946
2022-11-06T01:23:18.705Z,95949
2022-11-06T01:24:26.620Z,95945
2022-11-06T01:25:33.274Z,95944
2022-11-06T01:26:53.442Z,95946
2022-11-06T01:27:52.764Z,95946
2022-11-06T01:29:02.559Z,95945
2022-11-06T01:30:10.412Z,95943
2022-11-06T01:31:19.122Z,95940
2022-11-06T01:32:27.920Z,95939
2022-11-06T01:33:35.715Z,95937
2022-11-06T01:34:45.508Z,95931
2022-11-06T01:35:55.317Z,95930
2022-11-06T01:37:05.008Z,95930
2022-11-06T01:38:15.731Z,95929
2022-11-06T01:39:24.510Z,95929
2022-11-06T01:40:33.289Z,95918
2022-11-06T01:41:43.093Z,95926
2022-11-06T01:42:52.491Z,95922
2022-11-06T01:44:01.179Z,95922
2022-11-06T01:45:10.891Z,95925
2022-11-06T01:46:19.726Z,95921
2022-11-06T01:47:30.028Z,95918
2022-11-06T01:48:37.831Z,95919
2022-11-06T01:49:46.533Z,95910
2022-11-06T01:50:56.335Z,95907
2022-11-06T01:52:04.076Z,95914
2022-11-06T01:53:13.766Z,95912
2022-11-06T01:54:22.444Z,95912
2022-11-06T01:55:31.140Z,95913
2022-11-06T01:56:40.870Z,95912
2022-11-06T01:57:48.609Z,95915
2022-11-06T01:58:57.306Z,95913
2022-11-06T02:00:05.997Z,95912
2022-11-06T02:01:13.710Z,95917
2022-11-06T02:02:22.570Z,95915
2022-11-06T02:03:31.393Z,95911
2022-11-06T02:04:40.128Z,95902
2022-11-06T02:05:49.920Z,95905
2022-11-06T02:06:57.651Z,95907
2022-11-06T02:08:07.371Z,95904
2022-11-06T02:09:17.308Z,95901
2022-11-06T02:10:25.013Z,95898
2022-11-06T02:11:33.738Z,95898
2022-11-06T02:12:42.475Z,95893
2022-11-06T02:13:51.166Z,95894
2022-11-06T02:15:00.933Z,95897
2022-11-06T02:16:08.621Z,95902
2022-11-06T02:17:17.403Z,95899
2022-11-06T02:18:27.135Z,95896
2022-11-06T02:19:34.853Z,95892
2022-11-06T02:20:43.633Z,95895
2022-11-06T02:21:52.423Z,95897
2022-11-06T02:23:01.129Z,95897
2022-11-06T02:24:10.868Z,95893
2022-11-06T02:25:19.572Z,95894
2022-11-06T02:26:28.447Z,95892
2022-11-06T02:27:38.128Z,95891
2022-11-06T02:28:45.874Z,95893
2022-11-06T02:29:55.613Z,95892
2022-11-06T02:31:04.409Z,95891
2022-11-06T02:32:13.065Z,95885
2022-11-06T02:33:22.818Z,95884
2022-11-06T02:34:30.545Z,95887
2022-11-06T02:35:39.277Z,95884
2022-11-06T02:36:49.013Z,95881
2022-11-06T02:37:57.798Z,95878
2022-11-06T02:39:06.457Z,95880
2022-11-06T02:40:15.218Z,95874
2022-11-06T02:41:23.871Z,95873
2022-11-06T02:42:33.598Z,95875
2022-11-06T02:43:43.446Z,95873
2022-11-06T02:44:52.208Z,95873
2022-11-06T02:46:00.918Z,95872
2022-11-06T02:47:08.636Z,95873
2022-11-06T02:48:17.327Z,95869
2022-11-06T02:49:27.049Z,95870
2022-11-06T02:50:34.781Z,95873
2022-11-06T02:51:43.562Z,95869
2022-11-06T02:52:53.272Z,95867
2022-11-06T02:54:01.991Z,95865
2022-11-06T02:55:10.740Z,95870
2022-11-06T02:56:19.482Z,95865
2022-11-06T02:57:28.189Z,95866
2022-11-06T02:58:39.152Z,95863
2022-11-06T02:59:48.665Z,95864
2022-11-06T03:00:57.388Z,95860
2022-11-06T03:02:07.264Z,95862
2022-11-06T03:03:16.867Z,95859
2022-11-06T03:04:24.589Z,95855
2022-11-06T03:05:33.282Z,95856
2022-11-06T03:06:42.084Z,95862
2022-11-06T03:07:51.790Z,95862
2022-11-06T03:08:59.607Z,95868
2022-11-06T03:10:08.299Z,95864
2022-11-06T03:11:18.001Z,95866
2022-11-06T03:12:26.308Z,95865
2022-11-06T03:13:35.026Z,95870
2022-11-06T03:14:43.887Z,95863
2022-11-06T03:15:52.598Z,95861
2022-11-06T03:17:02.355Z,95859
2022-11-06T03:18:11.442Z,95862
2022-11-06T03:19:19.837Z,95864
2022-11-06T03:20:29.643Z,95859
2022-11-06T03:21:37.357Z,95858
2022-11-06T03:22:46.080Z,95854
2022-11-06T03:23:54.848Z,95855
2022-11-06T03:25:03.532Z,95853
2022-11-06T03:26:13.264Z,95854
2022-11-06T03:27:20.971Z,95855
2022-11-06T03:28:30.693Z,95855
2022-11-06T03:29:39.496Z,95858
2022-11-06T03:30:47.265Z,95860
2022-11-06T03:31:55.988Z,95855
2022-11-06T03:33:04.707Z,95857
2022-11-06T03:34:13.387Z,95856
2022-11-06T03:35:23.130Z,95856
2022-11-06T03:36:30.836Z,95859
2022-11-06T03:37:39.520Z,95859
2022-11-06T03:38:49.285Z,95861
2022-11-06T03:39:57.003Z,95861
2022-11-06T03:41:05.894Z,95861
2022-11-06T03:42:13.603Z,95864
2022-11-06T03:43:23.371Z,95861
2022-11-06T03:44:33.068Z,95865
2022-11-06T03:45:42.758Z,95863
2022-11-06T03:46:51.510Z,95865
2022-11-06T03:48:01.192Z,95870
2022-11-06T03:49:09.092Z,95866
2022-11-06T03:50:17.798Z,95865
2022-11-06T03:51:26.559Z,95861
2022-11-06T03:52:35.281Z,95860
2022-11-06T03:53:46.024Z,95860
2022-11-06T03:54:53.730Z,95859
2022-11-06T03:56:03.494Z,95860
2022-11-06T03:57:13.289Z,95863
2022-11-06T03:58:21.146Z,95859
2022-11-06T03:59:29.886Z,95865
2022-11-06T04:00:38.754Z,95861
2022-11-06T04:01:47.626Z,95860
2022-11-06T04:02:57.280Z,95860
2022-11-06T04:04:04.939Z,95859
2022-11-06T04:05:13.654Z,95860
2022-11-06T04:06:23.379Z,95859
2022-11-06T04:07:32.643Z,95861
2022-11-06T04:08:42.185Z,95856
2022-11-06T04:09:50.997Z,95864
2022-11-06T04:10:59.691Z,95859
2022-11-06T04:12:09.437Z,95858
2022-11-06T04:13:18.194Z,95861
2022-11-06T04:14:26.892Z,95861
2022-11-06T04:15:36.665Z,95865
2022-11-06T04:16:44.434Z,95856
2022-11-06T04:17:53.134Z,95859
2022-11-06T04:19:02.868Z,95859
2022-11-06T04:20:11.587Z,95862
2022-11-06T04:21:21.328Z,95857
2022-11-06T04:22:29.078Z,95858
2022-11-06T04:23:38.787Z,95854
2022-11-06T04:24:48.559Z,95855
2022-11-06T04:25:57.271Z,95856
2022-11-06T04:27:06.021Z,95854
2022-11-06T04:28:14.999Z,95849
2022-11-06T04:29:22.504Z,95852
2022-11-06T04:30:32.195Z,95851
2022-11-06T04:31:39.921Z,95850
2022-11-06T04:32:49.774Z,95848
2022-11-06T04:34:00.368Z,95852
2022-11-06T04:35:08.061Z,95851
2022-11-06T04:36:16.779Z,95850
2022-11-06T04:37:25.498Z,95854
2022-11-06T04:38:34.219Z,95847
2022-11-06T04:39:43.950Z,95854
2022-11-06T04:40:51.658Z,95851
2022-11-06T04:42:00.381Z,95851
2022-11-06T04:43:09.099Z,95847
2022-11-06T04:44:17.883Z,95843
2022-11-06T04:45:26.581Z,95843
2022-11-06T04:46:36.298Z,95841
2022-11-06T04:47:45.018Z,95840
2022-11-06T04:48:53.734Z,95840
2022-11-06T04:50:03.476Z,95829
2022-11-06T04:51:11.215Z,95831
2022-11-06T04:52:19.924Z,95832
2022-11-06T04:53:29.661Z,95834
2022-11-06T04:54:38.377Z,95837
2022-11-06T04:55:48.116Z,95838
2022-11-06T04:56:56.848Z,95836
2022-11-06T04:58:05.538Z,95837
2022-11-06T04:59:15.270Z,95836
2022-11-06T05:00:23.037Z,95831
2022-11-06T05:01:31.882Z,95833
2022-11-06T05:02:40.477Z,95834
2022-11-06T05:03:50.220Z,95831
2022-11-06T05:04:59.949Z,95828
2022-11-06T05:06:09.693Z,95821
2022-11-06T05:07:19.496Z,95823
2022-11-06T05:08:29.223Z,95820
2022-11-06T05:09:36.919Z,95823
2022-11-06T05:10:45.649Z,95819
2022-11-06T05:11:54.376Z,95824
2022-11-06T05:13:03.148Z,95821
2022-11-06T05:14:12.847Z,95825
2022-11-06T05:15:20.574Z,95821
2022-11-06T05:16:29.317Z,95820
2022-11-06T05:17:39.041Z,95816
2022-11-06T05:18:48.102Z,95818
2022-11-06T05:19:56.911Z,95819
2022-11-06T05:21:05.763Z,95819
2022-11-06T05:22:15.457Z,95816
2022-11-06T05:23:25.165Z,95812
2022-11-06T05:24:33.949Z,95818
2022-11-06T05:25:42.699Z,95810
2022-11-06T05:26:58.006Z,95812
2022-11-06T05:28:03.157Z,95812
2022-11-06T05:29:11.884Z,95814
2022-11-06T05:30:20.650Z,95811
2022-11-06T05:31:29.433Z,95814
2022-11-06T05:32:39.196Z,95811
2022-11-06T05:33:47.931Z,95807
2022-11-06T05:34:57.653Z,95808
2022-11-06T05:36:07.381Z,95812
2022-11-06T05:37:15.181Z,95810
2022-11-06T05:38:23.882Z,95804
2022-11-06T05:39:32.578Z,95805
2022-11-06T05:40:42.604Z,95802
2022-11-06T05:41:52.403Z,95804
2022-11-06T05:43:00.153Z,95804
2022-11-06T05:44:08.871Z,95803
2022-11-06T05:45:18.611Z,95801
2022-11-06T05:46:51.861Z,95801
2022-11-06T05:47:36.124Z,95798
2022-11-06T05:48:44.856Z,95801
2022-11-06T05:49:53.513Z,95795
2022-11-06T05:51:03.282Z,95803
2022-11-06T05:52:12.006Z,95801
2022-11-06T05:53:21.921Z,95808
2022-11-06T05:54:31.557Z,95805
2022-11-06T05:55:39.322Z,95806
2022-11-06T05:56:48.032Z,95806
2022-11-06T05:57:56.844Z,95810
2022-11-06T05:59:05.739Z,95811
2022-11-06T06:00:15.512Z,95807
2022-11-06T06:01:23.283Z,95808
2022-11-06T06:02:32.069Z,95805
2022-11-06T06:03:41.770Z,95802
2022-11-06T06:04:49.901Z,95798
2022-11-06T06:05:58.613Z,95799
2022-11-06T06:07:07.366Z,95799
2022-11-06T06:08:16.141Z,95796
2022-11-06T06:09:25.946Z,95802
2022-11-06T06:10:35.648Z,95798
2022-11-06T06:11:44.386Z,95791
2022-11-06T06:12:54.114Z,95793
2022-11-06T06:14:02.990Z,95792
2022-11-06T06:15:11.690Z,95791
2022-11-06T06:16:20.499Z,95791
2022-11-06T06:17:29.201Z,95786
2022-11-06T06:18:38.998Z,95787
2022-11-06T06:19:47.867Z,95787
2022-11-06T06:20:56.615Z,95783
2022-11-06T06:22:05.485Z,95784
2022-11-06T06:23:13.213Z,95783
2022-11-06T06:24:20.945Z,95783
2022-11-06T06:25:30.808Z,95782
2022-11-06T06:26:39.395Z,95786
2022-11-06T06:27:49.147Z,95787
2022-11-06T06:28:56.882Z,95782
2022-11-06T06:30:05.580Z,95783
2022-11-06T06:31:15.351Z,95783
2022-11-06T06:32:24.043Z,95780
2022-11-06T06:33:32.901Z,95782
2022-11-06T06:34:41.638Z,95783
2022-11-06T06:35:51.391Z,95775
2022-11-06T06:37:01.091Z,95774
2022-11-06T06:38:09.946Z,95772
2022-11-06T06:39:18.573Z,95767
2022-11-06T06:40:28.362Z,95766
2022-11-06T06:41:38.165Z,95762
2022-11-06T06:42:46.849Z,95767
2022-11-06T06:43:56.557Z,95770
2022-11-06T06:45:05.295Z,95765
2022-11-06T06:46:13.979Z,95770
2022-11-06T06:47:23.716Z,95764
2022-11-06T06:48:32.461Z,95767
2022-11-06T06:49:41.216Z,95768
2022-11-06T06:50:49.952Z,95766
2022-11-06T06:51:59.648Z,95760
2022-11-06T06:53:09.379Z,95760
2022-11-06T06:54:17.147Z,95759
2022-11-06T06:55:25.844Z,95764
2022-11-06T06:56:35.610Z,95762
2022-11-06T06:57:44.364Z,95764
2022-11-06T06:58:54.078Z,95765
2022-11-06T07:00:02.886Z,95760
2022-11-06T07:01:12.644Z,95761
2022-11-06T07:02:22.454Z,95760
2022-11-06T07:03:30.154Z,95763
2022-11-06T07:04:39.848Z,95765
2022-11-06T07:05:49.673Z,95771
2022-11-06T07:06:57.387Z,95767
2022-11-06T07:08:06.127Z,95770
2022-11-06T07:09:14.856Z,95774
2022-11-06T07:10:23.562Z,95771
2022-11-06T07:11:33.300Z,95766
2022-11-06T07:12:41.026Z,95762
2022-11-06T07:13:50.931Z,95761
2022-11-06T07:15:01.562Z,95761
2022-11-06T07:16:09.260Z,95766
2022-11-06T07:17:19.041Z,95764
2022-11-06T07:18:27.813Z,95767
2022-11-06T07:19:36.540Z,95766
2022-11-06T07:20:46.312Z,95770
2022-11-06T07:21:54.079Z,95773
2022-11-06T07:23:01.892Z,95774
2022-11-06T07:24:11.634Z,95777
2022-11-06T07:25:20.579Z,95779
2022-11-06T07:26:29.336Z,95780
2022-11-06T07:27:38.044Z,95775
2022-11-06T07:28:46.852Z,95771
2022-11-06T07:29:56.684Z,95770
2022-11-06T07:31:06.242Z,95772
2022-11-06T07:32:15.993Z,95777
2022-11-06T07:33:25.678Z,95779
2022-11-06T07:34:33.477Z,95780
2022-11-06T07:35:42.354Z,95782
2022-11-06T07:36:52.083Z,95781
2022-11-06T07:38:01.041Z,95786
2022-11-06T07:39:10.791Z,95783
2022-11-06T07:40:18.625Z,95787
2022-11-06T07:41:28.334Z,95786
2022-11-06T07:42:43.236Z,95783
2022-11-06T07:43:47.828Z,95780
2022-11-06T07:44:56.563Z,95776
2022-11-06T07:46:05.341Z,95771
2022-11-06T07:47:15.065Z,95765
2022-11-06T07:48:24.841Z,95771
2022-11-06T07:49:32.598Z,95768
2022-11-06T07:50:41.580Z,95769
2022-11-06T07:51:50.296Z,95773
2022-11-06T07:52:59.156Z,95771
2022-11-06T07:54:07.877Z,95768
2022-11-06T07:55:16.616Z,95770
2022-11-06T07:56:25.304Z,95776
2022-11-06T07:57:35.109Z,95769
2022-11-06T07:58:43.836Z,95766
2022-11-06T07:59:51.608Z,95770
2022-11-06T08:01:01.418Z,95775
2022-11-06T08:02:09.320Z,95768
2022-11-06T08:03:17.788Z,95771
2022-11-06T08:04:26.526Z,95769
2022-11-06T08:05:36.283Z,95758
2022-11-06T08:06:46.078Z,95762
2022-11-06T08:07:52.887Z,95758
2022-11-06T08:09:02.683Z,95754
2022-11-06T08:10:12.408Z,95759
2022-11-06T08:11:19.212Z,95759
2022-11-06T08:12:26.987Z,95767
2022-11-06T08:13:36.758Z,95752
2022-11-06T08:14:45.563Z,95756
2022-11-06T08:15:55.287Z,95749
2022-11-06T08:17:03.104Z,95748
2022-11-06T08:18:13.265Z,95738
2022-11-06T08:19:22.500Z,95735
2022-11-06T08:20:31.289Z,95731
2022-11-06T08:21:39.974Z,95731
2022-11-06T08:22:49.703Z,95726
2022-11-06T08:23:58.456Z,95726
2022-11-06T08:25:08.137Z,95721
2022-11-06T08:26:15.852Z,95726
2022-11-06T08:27:25.600Z,95720
2022-11-06T08:28:35.578Z,95722
2022-11-06T08:29:45.297Z,95717
2022-11-06T08:30:54.019Z,95712
2022-11-06T08:32:02.861Z,95713
2022-11-06T08:33:12.536Z,95711
2022-11-06T08:34:22.312Z,95716
2022-11-06T08:35:32.004Z,95711
2022-11-06T08:36:40.756Z,95713
2022-11-06T08:37:51.453Z,95722
2022-11-06T08:39:00.142Z,95726
2022-11-06T08:40:08.885Z,95728
2022-11-06T08:41:17.594Z,95730
2022-11-06T08:42:27.300Z,95729
2022-11-06T08:43:35.984Z,95720
2022-11-06T08:44:44.660Z,95721
2022-11-06T08:45:53.381Z,95719
2022-11-06T08:47:04.072Z,95715
2022-11-06T08:48:12.768Z,95715
2022-11-06T08:49:21.581Z,95714
2022-11-06T08:50:30.280Z,95712
2022-11-06T08:51:39.983Z,95718
2022-11-06T08:52:47.787Z,95716
2022-11-06T08:53:56.477Z,95713
2022-11-06T08:55:06.154Z,95706
2022-11-06T08:56:14.843Z,95706
2022-11-06T08:57:23.625Z,95706
2022-11-06T08:58:32.389Z,95704
2022-11-06T08:59:41.279Z,95707
2022-11-06T09:00:51.086Z,95704
2022-11-06T09:01:58.844Z,95701
2022-11-06T09:03:07.763Z,95704
2022-11-06T09:04:17.680Z,95696
2022-11-06T09:05:25.378Z,95698
2022-11-06T09:06:35.090Z,95693
2022-11-06T09:07:44.753Z,95692
2022-11-06T09:08:54.629Z,95688
2022-11-06T09:10:04.304Z,95683
2022-11-06T09:11:12.153Z,95681
2022-11-06T09:12:21.871Z,95674
2022-11-06T09:13:31.552Z,95673
2022-11-06T09:14:41.281Z,95673
2022-11-06T09:15:51.102Z,95670
2022-11-06T09:16:59.786Z,95668
2022-11-06T09:18:08.523Z,95668
2022-11-06T09:19:18.241Z,95674
2022-11-06T09:20:27.988Z,95668
2022-11-06T09:21:37.809Z,95676
2022-11-06T09:22:47.501Z,95673
2022-11-06T09:23:56.178Z,95671
2022-11-06T09:25:05.936Z,95670
2022-11-06T09:26:15.697Z,95666
2022-11-06T09:27:24.490Z,95662
2022-11-06T09:28:34.230Z,95661
2022-11-06T09:29:40.937Z,95661
2022-11-06T09:30:49.635Z,95661
2022-11-06T09:31:59.585Z,95663
2022-11-06T09:33:12.326Z,95653
2022-11-06T09:34:15.946Z,95651
2022-11-06T09:35:25.646Z,95645
2022-11-06T09:36:34.441Z,95645
2022-11-06T09:37:44.229Z,95639
2022-11-06T09:38:53.915Z,95642
2022-11-06T09:40:06.469Z,95642
2022-11-06T09:41:13.372Z,95638
2022-11-06T09:42:22.209Z,95634
2022-11-06T09:43:58.587Z,95627
2022-11-06T09:44:42.678Z,95621
2022-11-06T09:45:54.815Z,95617
2022-11-06T09:47:01.024Z,95616
2022-11-06T09:48:09.717Z,95623
2022-11-06T09:49:18.471Z,95615
2022-11-06T09:50:28.327Z,95609
2022-11-06T09:51:36.078Z,95604
2022-11-06T09:52:45.829Z,95601
2022-11-06T09:53:55.735Z,95604
2022-11-06T09:55:05.443Z,95609
2022-11-06T09:56:15.185Z,95604
2022-11-06T09:57:23.881Z,95601
2022-11-06T09:58:32.569Z,95600
2022-11-06T09:59:42.262Z,95601
2022-11-06T10:00:51.101Z,95592
2022-11-06T10:02:00.880Z,95595
2022-11-06T10:03:09.471Z,95593
2022-11-06T10:04:18.249Z,95592
2022-11-06T10:05:26.924Z,95592
2022-11-06T10:06:34.692Z,95590
2022-11-06T10:07:44.477Z,95592
2022-11-06T10:08:54.225Z,95596
2022-11-06T10:10:03.877Z,95601
2022-11-06T10:11:12.546Z,95599
2022-11-06T10:12:21.339Z,95601
2022-11-06T10:13:30.148Z,95599
2022-11-06T10:14:38.918Z,95597
2022-11-06T10:15:46.594Z,95591
2022-11-06T10:16:55.386Z,95587
2022-11-06T10:18:05.081Z,95579
2022-11-06T10:19:12.758Z,95570
2022-11-06T10:20:26.691Z,95568
2022-11-06T10:21:31.192Z,95565
2022-11-06T10:22:40.896Z,95562
2022-11-06T10:23:50.597Z,95562
2022-11-06T10:25:01.868Z,95564
2022-11-06T10:26:14.836Z,95557
2022-11-06T10:27:24.646Z,95557
2022-11-06T10:28:34.358Z,95552
2022-11-06T10:29:42.061Z,95549
2022-11-06T10:30:50.780Z,95554
2022-11-06T10:32:00.491Z,95547
2022-11-06T10:33:10.233Z,95548
2022-11-06T10:34:18.933Z,95549
2022-11-06T10:35:28.874Z,95548
2022-11-06T10:36:38.572Z,95542
2022-11-06T10:37:47.256Z,95535
2022-11-06T10:38:55.999Z,95535
2022-11-06T10:40:05.730Z,95534
2022-11-06T10:41:14.444Z,95540
2022-11-06T10:42:24.156Z,95538
2022-11-06T10:43:33.879Z,95536
2022-11-06T10:44:42.556Z,95530
2022-11-06T10:45:50.317Z,95531
2022-11-06T10:46:59.040Z,95530
2022-11-06T10:48:08.714Z,95524
2022-11-06T10:49:18.448Z,95524
2022-11-06T10:50:26.134Z,95523
2022-11-06T10:51:34.867Z,95526
2022-11-06T10:52:44.686Z,95523
2022-11-06T10:53:53.373Z,95519
2022-11-06T10:55:02.085Z,95514
2022-11-06T10:56:11.346Z,95508
2022-11-06T10:57:21.575Z,95501
2022-11-06T10:58:31.345Z,95496
2022-11-06T10:59:39.012Z,95492
2022-11-06T11:00:47.748Z,95495
2022-11-06T11:01:57.600Z,95488
2022-11-06T11:03:07.248Z,95488
2022-11-06T11:04:15.952Z,95492
2022-11-06T11:05:24.787Z,95482
2022-11-06T11:06:33.520Z,95483
2022-11-06T11:07:44.263Z,95482
2022-11-06T11:08:53.032Z,95476
2022-11-06T11:10:01.840Z,95476
2022-11-06T11:11:11.510Z,95467
2022-11-06T11:12:20.432Z,95464
2022-11-06T11:13:29.294Z,95462
2022-11-06T11:14:38.159Z,95457
2022-11-06T11:15:46.880Z,95456
2022-11-06T11:16:56.643Z,95451
2022-11-06T11:18:05.638Z,95447
2022-11-06T11:19:14.376Z,95446
2022-11-06T11:20:24.276Z,95434
2022-11-06T11:21:33.066Z,95428
2022-11-06T11:22:41.768Z,95422
2022-11-06T11:23:50.588Z,95421
2022-11-06T11:24:59.203Z,95413
2022-11-06T11:26:08.893Z,95424
2022-11-06T11:27:16.695Z,95423
2022-11-06T11:28:26.438Z,95420
2022-11-06T11:29:36.168Z,95418
2022-11-06T11:30:44.905Z,95421
2022-11-06T11:31:53.589Z,95419
2022-11-06T11:33:02.727Z,95419
2022-11-06T11:34:11.458Z,95416
2022-11-06T11:35:21.181Z,95416
2022-11-06T11:36:29.905Z,95413
2022-11-06T11:37:37.615Z,95405
2022-11-06T11:38:47.681Z,95412
2022-11-06T11:39:57.437Z,95408
2022-11-06T11:41:06.605Z,95411
2022-11-06T11:42:15.225Z,95409
2022-11-06T11:43:23.985Z,95407
2022-11-06T11:44:33.743Z,95415
2022-11-06T11:45:42.405Z,95410
2022-11-06T11:46:52.213Z,95410
2022-11-06T11:48:02.281Z,95409
2022-11-06T11:49:10.134Z,95414
2022-11-06T11:50:18.826Z,95412
2022-11-06T11:51:28.590Z,95408
2022-11-06T11:52:38.332Z,95403
2022-11-06T11:53:48.153Z,95401
2022-11-06T11:54:55.834Z,95403
2022-11-06T11:56:05.764Z,95402
2022-11-06T11:57:15.554Z,95403
2022-11-06T11:58:24.379Z,95394
2022-11-06T11:59:33.268Z,95392
2022-11-06T12:00:42.971Z,95397
2022-11-06T12:01:51.799Z,95388
2022-11-06T12:03:01.474Z,95391
2022-11-06T12:04:09.284Z,95385
2022-11-06T12:05:17.993Z,95383
2022-11-06T12:06:27.922Z,95388
2022-11-06T12:07:37.475Z,95378
2022-11-06T12:08:47.687Z,95383
2022-11-06T12:09:57.720Z,95378
2022-11-06T12:11:07.546Z,95371
2022-11-06T12:12:17.360Z,95370
2022-11-06T12:13:26.086Z,95367
2022-11-06T12:14:34.879Z,95363
2022-11-06T12:15:44.611Z,95368
2022-11-06T12:16:52.336Z,95367
2022-11-06T12:18:02.060Z,95364
2022-11-06T12:19:10.888Z,95368
2022-11-06T12:20:20.877Z,95361
2022-11-06T12:21:30.495Z,95370
2022-11-06T12:22:37.260Z,95368
2022-11-06T12:23:46.123Z,95366
2022-11-06T12:24:55.850Z,95364
2022-11-06T12:26:05.700Z,95372
2022-11-06T12:27:14.383Z,95370
2022-11-06T12:28:23.156Z,95370
2022-11-06T12:29:32.947Z,95367
2022-11-06T12:30:40.759Z,95367
2022-11-06T12:31:49.563Z,95367
2022-11-06T12:32:59.281Z,95364
2022-11-06T12:34:10.916Z,95366
2022-11-06T12:35:19.009Z,95364
2022-11-06T12:36:28.809Z,95361
2022-11-06T12:37:37.590Z,95359
2022-11-06T12:38:47.354Z,95358
2022-11-06T12:39:55.059Z,95354
2022-11-06T12:41:03.867Z,95350
2022-11-06T12:42:13.731Z,95344
2022-11-06T12:43:21.447Z,95348
2022-11-06T12:44:30.146Z,95346
2022-11-06T12:45:38.884Z,95343
2022-11-06T12:46:47.593Z,95345
2022-11-06T12:47:57.657Z,95351
2022-11-06T12:49:06.357Z,95351
2022-11-06T12:50:16.104Z,95353
2022-11-06T12:51:25.843Z,95351
2022-11-06T12:52:35.573Z,95355
2022-11-06T12:53:45.455Z,95356
2022-11-06T12:54:55.250Z,95356
2022-11-06T12:56:04.989Z,95356
2022-11-06T12:57:14.830Z,95352
2022-11-06T12:58:23.022Z,95353
2022-11-06T12:59:33.234Z,95350
2022-11-06T13:00:43.049Z,95347
2022-11-06T13:01:52.533Z,95345
2022-11-06T13:03:01.511Z,95346
2022-11-06T13:04:11.405Z,95343
2022-11-06T13:05:20.532Z,95339
2022-11-06T13:06:30.587Z,95347
2022-11-06T13:07:38.333Z,95347
2022-11-06T13:08:47.061Z,95353
2022-11-06T13:09:55.811Z,95356
2022-11-06T13:11:04.553Z,95355
2022-11-06T13:12:13.258Z,95357
2022-11-06T13:13:23.021Z,95358
2022-11-06T13:14:30.905Z,95354
2022-11-06T13:15:40.634Z,95362
2022-11-06T13:16:50.459Z,95362
2022-11-06T13:17:59.207Z,95361
2022-11-06T13:19:08.949Z,95356
2022-11-06T13:20:17.662Z,95351
2022-11-06T13:21:26.421Z,95344
2022-11-06T13:22:36.151Z,95350
2022-11-06T13:23:43.978Z,95348
2022-11-06T13:24:52.759Z,95344
2022-11-06T13:26:02.433Z,95341
2022-11-06T13:27:11.203Z,95325
2022-11-06T13:28:19.995Z,95320
2022-11-06T13:29:29.672Z,95313
2022-11-06T13:30:38.363Z,95306
2022-11-06T13:31:48.085Z,95302
2022-11-06T13:32:56.922Z,95294
2022-11-06T13:34:06.690Z,95292
2022-11-06T13:35:16.386Z,95286
2022-11-06T13:36:24.185Z,95288
2022-11-06T13:37:32.854Z,95285
2022-11-06T13:38:41.606Z,95294
2022-11-06T13:39:50.358Z,95291
2022-11-06T13:41:03.432Z,95289
2022-11-06T13:42:09.854Z,95291
2022-11-06T13:43:18.594Z,95295
2022-11-06T13:44:28.370Z,95291
2022-11-06T13:45:37.239Z,95293
2022-11-06T13:46:45.978Z,95290
2022-11-06T13:47:54.713Z,95292
2022-11-06T13:49:04.419Z,95291
2022-11-06T13:50:14.180Z,95288
2022-11-06T13:51:22.920Z,95283
2022-11-06T13:52:31.714Z,95273
2022-11-06T13:53:41.435Z,95277
2022-11-06T13:54:51.206Z,95275
2022-11-06T13:56:01.185Z,95270
2022-11-06T13:57:09.665Z,95267
2022-11-06T13:58:18.347Z,95255
2022-11-06T13:59:32.893Z,95260
2022-11-06T14:00:37.897Z,95257
2022-11-06T14:01:46.717Z,95253
2022-11-06T14:02:56.312Z,95245
2022-11-06T14:04:04.130Z,95248
2022-11-06T14:05:12.864Z,95244
2022-11-06T14:06:21.601Z,95247
2022-11-06T14:07:30.324Z,95242
2022-11-06T14:08:40.308Z,95241
2022-11-06T14:09:48.959Z,95245
2022-11-06T14:10:58.640Z,95239
2022-11-06T14:12:12.556Z,95236
2022-11-06T14:13:18.123Z,95237
2022-11-06T14:14:27.848Z,95237
2022-11-06T14:15:36.586Z,95242
2022-11-06T14:16:45.290Z,95238
2022-11-06T14:17:55.118Z,95241
2022-11-06T14:19:02.911Z,95237
2022-11-06T14:20:11.695Z,95236
2022-11-06T14:21:21.444Z,95233
2022-11-06T14:22:30.154Z,95233
2022-11-06T14:23:38.878Z,95233
2022-11-06T14:24:47.627Z,95235
2022-11-06T14:25:58.416Z,95235
2022-11-06T14:27:08.094Z,95234
2022-11-06T14:28:15.894Z,95237
2022-11-06T14:29:23.476Z,95234
2022-11-06T14:31:05.497Z,95236
2022-11-06T14:31:43.956Z,95244
2022-11-06T14:32:53.643Z,95242
2022-11-06T14:34:02.476Z,95246
2022-11-06T14:35:11.287Z,95245
2022-11-06T14:36:20.888Z,95243
2022-11-06T14:37:31.090Z,95240
2022-11-06T14:38:38.381Z,95238
2022-11-06T14:39:47.065Z,95238
2022-11-06T14:40:54.816Z,95241
2022-11-06T14:42:03.492Z,95247
2022-11-06T14:43:12.516Z,95248
2022-11-06T14:44:21.990Z,95248
2022-11-06T14:45:31.696Z,95244
2022-11-06T14:46:40.441Z,95245
2022-11-06T14:47:49.209Z,95244
2022-11-06T14:48:58.931Z,95247